sensor_id;sensor_type;location;lat;lon;timestamp;temperature;humidity
55634;DHT22;41504;53.162;6.788;2023-06-22T00:01:54;20.20;80.90
55634;DHT22;41504;53.162;6.788;2023-06-22T00:04:19;20.20;81.00
55634;DHT22;41504;53.162;6.788;2023-06-22T00:06:45;20.20;81.00
55634;DHT22;41504;53.162;6.788;2023-06-22T00:09:11;20.20;81.30
55634;DHT22;41504;53.162;6.788;2023-06-22T00:11:37;20.20;81.40
55634;DHT22;41504;53.162;6.788;2023-06-22T00:14:04;20.10;81.20
55634;DHT22;41504;53.162;6.788;2023-06-22T00:16:32;20.10;81.20
55634;DHT22;41504;53.162;6.788;2023-06-22T00:18:57;20.10;81.30
55634;DHT22;41504;53.162;6.788;2023-06-22T00:21:26;20.00;81.50
55634;DHT22;41504;53.162;6.788;2023-06-22T00:23:52;20.00;81.70
55634;DHT22;41504;53.162;6.788;2023-06-22T00:26:18;20.00;81.70
55634;DHT22;41504;53.162;6.788;2023-06-22T00:28:44;19.90;81.70
55634;DHT22;41504;53.162;6.788;2023-06-22T00:31:10;19.90;81.90
55634;DHT22;41504;53.162;6.788;2023-06-22T00:33:35;19.90;81.90
55634;DHT22;41504;53.162;6.788;2023-06-22T00:36:01;19.80;81.90
55634;DHT22;41504;53.162;6.788;2023-06-22T00:38:29;19.80;81.90
55634;DHT22;41504;53.162;6.788;2023-06-22T00:40:54;19.80;81.90
55634;DHT22;41504;53.162;6.788;2023-06-22T00:43:20;19.80;81.90
55634;DHT22;41504;53.162;6.788;2023-06-22T00:45:46;19.80;82.00
55634;DHT22;41504;53.162;6.788;2023-06-22T00:48:13;19.70;82.10
55634;DHT22;41504;53.162;6.788;2023-06-22T00:50:39;19.70;82.10
55634;DHT22;41504;53.162;6.788;2023-06-22T00:53:08;19.70;82.10
55634;DHT22;41504;53.162;6.788;2023-06-22T00:55:35;19.70;82.10
55634;DHT22;41504;53.162;6.788;2023-06-22T00:58:06;19.60;82.20
55634;DHT22;41504;53.162;6.788;2023-06-22T01:00:36;19.60;82.20
55634;DHT22;41504;53.162;6.788;2023-06-22T01:03:02;19.50;82.30
55634;DHT22;41504;53.162;6.788;2023-06-22T01:05:28;19.50;82.30
55634;DHT22;41504;53.162;6.788;2023-06-22T01:08:31;19.50;82.30
55634;DHT22;41504;53.162;6.788;2023-06-22T01:11:09;19.50;82.50
55634;DHT22;41504;53.162;6.788;2023-06-22T01:13:37;19.40;82.60
55634;DHT22;41504;53.162;6.788;2023-06-22T01:18:42;19.40;82.60
55634;DHT22;41504;53.162;6.788;2023-06-22T01:21:12;19.40;82.70
55634;DHT22;41504;53.162;6.788;2023-06-22T01:26:42;19.40;82.80
55634;DHT22;41504;53.162;6.788;2023-06-22T01:29:13;19.30;83.00
55634;DHT22;41504;53.162;6.788;2023-06-22T01:31:41;19.30;83.20
55634;DHT22;41504;53.162;6.788;2023-06-22T01:34:08;19.20;83.50
55634;DHT22;41504;53.162;6.788;2023-06-22T01:36:35;19.20;83.80
55634;DHT22;41504;53.162;6.788;2023-06-22T01:39:02;19.10;83.90
55634;DHT22;41504;53.162;6.788;2023-06-22T01:41:33;19.20;84.00
55634;DHT22;41504;53.162;6.788;2023-06-22T01:44:00;19.10;84.60
55634;DHT22;41504;53.162;6.788;2023-06-22T01:46:26;19.10;84.10
55634;DHT22;41504;53.162;6.788;2023-06-22T01:48:53;19.10;84.10
55634;DHT22;41504;53.162;6.788;2023-06-22T01:51:19;19.20;84.30
55634;DHT22;41504;53.162;6.788;2023-06-22T01:53:45;19.10;84.30
55634;DHT22;41504;53.162;6.788;2023-06-22T01:56:13;19.10;84.30
55634;DHT22;41504;53.162;6.788;2023-06-22T01:58:50;19.10;84.40
55634;DHT22;41504;53.162;6.788;2023-06-22T02:01:20;19.10;84.50
55634;DHT22;41504;53.162;6.788;2023-06-22T02:04:13;19.00;84.60
55634;DHT22;41504;53.162;6.788;2023-06-22T02:06:42;19.00;84.40
55634;DHT22;41504;53.162;6.788;2023-06-22T02:09:16;18.90;84.80
55634;DHT22;41504;53.162;6.788;2023-06-22T02:11:45;18.80;85.20
55634;DHT22;41504;53.162;6.788;2023-06-22T02:14:13;18.80;85.40
55634;DHT22;41504;53.162;6.788;2023-06-22T02:16:40;18.70;85.40
55634;DHT22;41504;53.162;6.788;2023-06-22T02:19:07;18.70;85.80
55634;DHT22;41504;53.162;6.788;2023-06-22T02:21:34;18.60;85.80
55634;DHT22;41504;53.162;6.788;2023-06-22T02:23:59;18.70;85.70
55634;DHT22;41504;53.162;6.788;2023-06-22T02:26:26;18.50;86.00
55634;DHT22;41504;53.162;6.788;2023-06-22T02:28:53;18.30;86.60
55634;DHT22;41504;53.162;6.788;2023-06-22T02:31:19;18.20;87.30
55634;DHT22;41504;53.162;6.788;2023-06-22T02:33:45;18.00;87.80
55634;DHT22;41504;53.162;6.788;2023-06-22T02:36:11;17.90;88.10
55634;DHT22;41504;53.162;6.788;2023-06-22T02:38:41;17.70;88.50
55634;DHT22;41504;53.162;6.788;2023-06-22T02:41:14;17.70;88.70
55634;DHT22;41504;53.162;6.788;2023-06-22T02:43:46;17.70;88.50
55634;DHT22;41504;53.162;6.788;2023-06-22T02:46:13;17.80;88.40
55634;DHT22;41504;53.162;6.788;2023-06-22T02:48:39;17.70;88.40
55634;DHT22;41504;53.162;6.788;2023-06-22T02:51:05;17.50;89.00
55634;DHT22;41504;53.162;6.788;2023-06-22T02:53:31;17.40;89.40
55634;DHT22;41504;53.162;6.788;2023-06-22T02:55:57;17.60;89.20
55634;DHT22;41504;53.162;6.788;2023-06-22T02:58:23;17.60;89.00
55634;DHT22;41504;53.162;6.788;2023-06-22T03:00:50;17.50;89.20
55634;DHT22;41504;53.162;6.788;2023-06-22T03:03:19;17.40;89.60
55634;DHT22;41504;53.162;6.788;2023-06-22T03:05:45;17.40;90.00
55634;DHT22;41504;53.162;6.788;2023-06-22T03:08:10;17.40;89.80
55634;DHT22;41504;53.162;6.788;2023-06-22T03:10:36;17.50;89.60
55634;DHT22;41504;53.162;6.788;2023-06-22T03:13:02;17.40;89.80
55634;DHT22;41504;53.162;6.788;2023-06-22T03:15:28;17.40;90.00
55634;DHT22;41504;53.162;6.788;2023-06-22T03:17:58;17.50;89.70
55634;DHT22;41504;53.162;6.788;2023-06-22T03:20:24;17.60;89.50
55634;DHT22;41504;53.162;6.788;2023-06-22T03:22:50;17.70;89.40
55634;DHT22;41504;53.162;6.788;2023-06-22T03:25:16;17.70;89.70
55634;DHT22;41504;53.162;6.788;2023-06-22T03:27:42;17.70;89.00
55634;DHT22;41504;53.162;6.788;2023-06-22T03:30:10;17.80;88.90
55634;DHT22;41504;53.162;6.788;2023-06-22T03:32:36;17.90;88.80
55634;DHT22;41504;53.162;6.788;2023-06-22T03:35:02;17.90;88.70
55634;DHT22;41504;53.162;6.788;2023-06-22T03:37:28;17.90;88.60
55634;DHT22;41504;53.162;6.788;2023-06-22T03:39:55;17.90;88.50
55634;DHT22;41504;53.162;6.788;2023-06-22T03:42:20;17.90;88.40
55634;DHT22;41504;53.162;6.788;2023-06-22T03:44:46;18.00;88.50
55634;DHT22;41504;53.162;6.788;2023-06-22T03:47:12;18.00;88.50
55634;DHT22;41504;53.162;6.788;2023-06-22T03:49:38;18.00;88.50
55634;DHT22;41504;53.162;6.788;2023-06-22T03:52:04;18.00;88.50
55634;DHT22;41504;53.162;6.788;2023-06-22T03:54:30;18.00;88.50
55634;DHT22;41504;53.162;6.788;2023-06-22T03:56:57;18.00;88.40
55634;DHT22;41504;53.162;6.788;2023-06-22T03:59:23;18.10;88.40
55634;DHT22;41504;53.162;6.788;2023-06-22T04:01:49;18.10;88.50
55634;DHT22;41504;53.162;6.788;2023-06-22T04:04:19;18.10;88.60
55634;DHT22;41504;53.162;6.788;2023-06-22T04:06:44;18.10;88.70
55634;DHT22;41504;53.162;6.788;2023-06-22T04:09:10;18.10;89.30
55634;DHT22;41504;53.162;6.788;2023-06-22T04:11:36;18.10;88.90
55634;DHT22;41504;53.162;6.788;2023-06-22T04:14:02;18.20;88.90
55634;DHT22;41504;53.162;6.788;2023-06-22T04:16:27;18.20;89.00
55634;DHT22;41504;53.162;6.788;2023-06-22T04:18:53;18.20;89.00
55634;DHT22;41504;53.162;6.788;2023-06-22T04:21:19;18.30;89.00
55634;DHT22;41504;53.162;6.788;2023-06-22T04:23:45;18.30;89.10
55634;DHT22;41504;53.162;6.788;2023-06-22T04:26:12;18.30;89.10
55634;DHT22;41504;53.162;6.788;2023-06-22T04:28:38;18.30;89.10
55634;DHT22;41504;53.162;6.788;2023-06-22T04:31:03;18.30;89.10
55634;DHT22;41504;53.162;6.788;2023-06-22T04:33:30;18.30;89.00
55634;DHT22;41504;53.162;6.788;2023-06-22T04:35:56;18.30;88.90
55634;DHT22;41504;53.162;6.788;2023-06-22T04:38:23;18.40;89.60
55634;DHT22;41504;53.162;6.788;2023-06-22T04:40:49;18.40;89.00
55634;DHT22;41504;53.162;6.788;2023-06-22T04:43:15;18.40;88.90
55634;DHT22;41504;53.162;6.788;2023-06-22T04:45:41;18.50;88.90
55634;DHT22;41504;53.162;6.788;2023-06-22T04:48:07;18.50;88.80
55634;DHT22;41504;53.162;6.788;2023-06-22T04:50:36;18.50;88.90
55634;DHT22;41504;53.162;6.788;2023-06-22T04:53:03;18.50;88.80
55634;DHT22;41504;53.162;6.788;2023-06-22T04:55:31;18.60;88.80
55634;DHT22;41504;53.162;6.788;2023-06-22T04:57:57;18.70;88.60
55634;DHT22;41504;53.162;6.788;2023-06-22T05:00:30;18.70;88.60
55634;DHT22;41504;53.162;6.788;2023-06-22T05:02:56;18.80;88.40
55634;DHT22;41504;53.162;6.788;2023-06-22T05:05:23;18.90;88.40
55634;DHT22;41504;53.162;6.788;2023-06-22T05:07:51;18.90;88.40
55634;DHT22;41504;53.162;6.788;2023-06-22T05:10:19;19.00;88.20
55634;DHT22;41504;53.162;6.788;2023-06-22T05:12:46;19.10;88.00
55634;DHT22;41504;53.162;6.788;2023-06-22T05:15:12;19.20;87.60
55634;DHT22;41504;53.162;6.788;2023-06-22T05:17:38;19.30;87.40
55634;DHT22;41504;53.162;6.788;2023-06-22T05:20:11;19.40;87.20
55634;DHT22;41504;53.162;6.788;2023-06-22T05:22:38;19.40;86.90
55634;DHT22;41504;53.162;6.788;2023-06-22T05:25:08;19.40;86.80
55634;DHT22;41504;53.162;6.788;2023-06-22T05:27:34;19.50;86.60
55634;DHT22;41504;53.162;6.788;2023-06-22T05:30:05;19.60;86.30
55634;DHT22;41504;53.162;6.788;2023-06-22T05:32:32;19.60;85.90
55634;DHT22;41504;53.162;6.788;2023-06-22T05:34:59;19.70;85.60
55634;DHT22;41504;53.162;6.788;2023-06-22T05:37:25;19.80;85.40
55634;DHT22;41504;53.162;6.788;2023-06-22T05:39:51;19.80;85.20
55634;DHT22;41504;53.162;6.788;2023-06-22T05:42:17;19.90;84.90
55634;DHT22;41504;53.162;6.788;2023-06-22T05:44:43;20.00;84.80
55634;DHT22;41504;53.162;6.788;2023-06-22T05:47:08;20.00;84.50
55634;DHT22;41504;53.162;6.788;2023-06-22T05:49:34;20.10;84.30
55634;DHT22;41504;53.162;6.788;2023-06-22T05:52:00;20.20;83.90
55634;DHT22;41504;53.162;6.788;2023-06-22T05:54:27;20.20;83.70
55634;DHT22;41504;53.162;6.788;2023-06-22T05:56:53;20.30;83.20
55634;DHT22;41504;53.162;6.788;2023-06-22T05:59:19;20.30;83.00
55634;DHT22;41504;53.162;6.788;2023-06-22T06:01:45;20.30;82.70
55634;DHT22;41504;53.162;6.788;2023-06-22T06:04:16;20.40;82.60
55634;DHT22;41504;53.162;6.788;2023-06-22T06:06:42;20.40;82.30
55634;DHT22;41504;53.162;6.788;2023-06-22T06:09:08;20.50;82.20
55634;DHT22;41504;53.162;6.788;2023-06-22T06:11:33;20.60;82.10
55634;DHT22;41504;53.162;6.788;2023-06-22T06:13:59;20.60;82.00
55634;DHT22;41504;53.162;6.788;2023-06-22T06:16:25;20.60;82.00
55634;DHT22;41504;53.162;6.788;2023-06-22T06:18:51;20.70;82.10
55634;DHT22;41504;53.162;6.788;2023-06-22T06:21:18;20.70;81.90
55634;DHT22;41504;53.162;6.788;2023-06-22T06:23:44;20.70;81.80
55634;DHT22;41504;53.162;6.788;2023-06-22T06:26:10;20.80;81.80
55634;DHT22;41504;53.162;6.788;2023-06-22T06:28:35;20.90;81.60
55634;DHT22;41504;53.162;6.788;2023-06-22T06:31:01;21.00;81.20
55634;DHT22;41504;53.162;6.788;2023-06-22T06:33:27;21.00;81.10
55634;DHT22;41504;53.162;6.788;2023-06-22T06:35:53;21.10;81.10
55634;DHT22;41504;53.162;6.788;2023-06-22T06:38:18;21.10;81.00
55634;DHT22;41504;53.162;6.788;2023-06-22T06:40:44;21.10;80.80
55634;DHT22;41504;53.162;6.788;2023-06-22T06:43:10;21.10;80.60
55634;DHT22;41504;53.162;6.788;2023-06-22T06:45:36;21.20;80.50
55634;DHT22;41504;53.162;6.788;2023-06-22T06:48:02;21.20;80.20
55634;DHT22;41504;53.162;6.788;2023-06-22T06:50:28;21.30;80.20
55634;DHT22;41504;53.162;6.788;2023-06-22T06:52:54;21.40;80.00
55634;DHT22;41504;53.162;6.788;2023-06-22T06:55:20;21.50;79.60
55634;DHT22;41504;53.162;6.788;2023-06-22T06:57:46;21.60;79.20
55634;DHT22;41504;53.162;6.788;2023-06-22T07:00:14;21.60;78.60
55634;DHT22;41504;53.162;6.788;2023-06-22T07:02:42;21.70;78.50
55634;DHT22;41504;53.162;6.788;2023-06-22T07:05:09;21.90;78.40
55634;DHT22;41504;53.162;6.788;2023-06-22T07:07:35;21.90;77.80
55634;DHT22;41504;53.162;6.788;2023-06-22T07:10:01;22.00;77.50
55634;DHT22;41504;53.162;6.788;2023-06-22T07:12:27;22.10;77.10
55634;DHT22;41504;53.162;6.788;2023-06-22T07:14:53;22.10;76.90
55634;DHT22;41504;53.162;6.788;2023-06-22T07:17:19;22.20;76.80
55634;DHT22;41504;53.162;6.788;2023-06-22T07:19:46;22.20;76.80
55634;DHT22;41504;53.162;6.788;2023-06-22T07:22:11;22.20;76.60
55634;DHT22;41504;53.162;6.788;2023-06-22T07:24:37;22.20;76.70
55634;DHT22;41504;53.162;6.788;2023-06-22T07:27:03;22.20;76.90
55634;DHT22;41504;53.162;6.788;2023-06-22T07:29:30;22.20;76.90
55634;DHT22;41504;53.162;6.788;2023-06-22T07:31:57;22.30;76.80
55634;DHT22;41504;53.162;6.788;2023-06-22T07:34:23;22.30;76.70
55634;DHT22;41504;53.162;6.788;2023-06-22T07:36:48;22.30;76.70
55634;DHT22;41504;53.162;6.788;2023-06-22T07:39:14;22.20;76.30
55634;DHT22;41504;53.162;6.788;2023-06-22T07:41:40;22.30;75.70
55634;DHT22;41504;53.162;6.788;2023-06-22T07:44:09;22.30;75.50
55634;DHT22;41504;53.162;6.788;2023-06-22T07:46:34;22.30;75.50
55634;DHT22;41504;53.162;6.788;2023-06-22T07:49:01;22.30;75.40
55634;DHT22;41504;53.162;6.788;2023-06-22T07:51:27;22.30;75.00
55634;DHT22;41504;53.162;6.788;2023-06-22T07:53:53;22.30;74.80
55634;DHT22;41504;53.162;6.788;2023-06-22T07:56:19;22.40;75.00
55634;DHT22;41504;53.162;6.788;2023-06-22T07:58:46;22.40;74.80
55634;DHT22;41504;53.162;6.788;2023-06-22T08:01:13;22.50;74.60
55634;DHT22;41504;53.162;6.788;2023-06-22T08:03:39;22.60;74.20
55634;DHT22;41504;53.162;6.788;2023-06-22T08:06:05;22.70;73.70
55634;DHT22;41504;53.162;6.788;2023-06-22T08:08:31;22.70;73.50
55634;DHT22;41504;53.162;6.788;2023-06-22T08:10:57;22.80;73.50
55634;DHT22;41504;53.162;6.788;2023-06-22T08:13:23;22.80;73.40
55634;DHT22;41504;53.162;6.788;2023-06-22T08:15:48;22.80;73.30
55634;DHT22;41504;53.162;6.788;2023-06-22T08:18:15;22.90;72.90
55634;DHT22;41504;53.162;6.788;2023-06-22T08:20:42;23.00;72.80
55634;DHT22;41504;53.162;6.788;2023-06-22T08:23:07;23.10;72.20
55634;DHT22;41504;53.162;6.788;2023-06-22T08:25:34;23.10;71.80
55634;DHT22;41504;53.162;6.788;2023-06-22T08:28:00;23.10;71.80
55634;DHT22;41504;53.162;6.788;2023-06-22T08:30:26;23.20;71.60
55634;DHT22;41504;53.162;6.788;2023-06-22T08:32:52;23.30;71.40
55634;DHT22;41504;53.162;6.788;2023-06-22T08:35:19;23.30;71.80
55634;DHT22;41504;53.162;6.788;2023-06-22T08:37:46;23.40;70.60
55634;DHT22;41504;53.162;6.788;2023-06-22T08:40:18;23.40;70.50
55634;DHT22;41504;53.162;6.788;2023-06-22T08:42:45;23.40;70.30
55634;DHT22;41504;53.162;6.788;2023-06-22T08:45:12;23.50;70.40
55634;DHT22;41504;53.162;6.788;2023-06-22T08:47:38;23.50;70.30
55634;DHT22;41504;53.162;6.788;2023-06-22T08:50:05;23.50;69.40
55634;DHT22;41504;53.162;6.788;2023-06-22T08:52:32;23.50;69.20
55634;DHT22;41504;53.162;6.788;2023-06-22T08:54:57;23.60;69.40
55634;DHT22;41504;53.162;6.788;2023-06-22T08:57:27;23.60;69.20
55634;DHT22;41504;53.162;6.788;2023-06-22T08:59:52;23.70;69.30
55634;DHT22;41504;53.162;6.788;2023-06-22T09:02:18;23.70;69.30
55634;DHT22;41504;53.162;6.788;2023-06-22T09:04:46;23.80;69.00
55634;DHT22;41504;53.162;6.788;2023-06-22T09:07:12;23.90;68.80
55634;DHT22;41504;53.162;6.788;2023-06-22T09:09:37;24.00;68.60
55634;DHT22;41504;53.162;6.788;2023-06-22T09:12:04;24.00;68.30
55634;DHT22;41504;53.162;6.788;2023-06-22T09:14:30;24.00;68.30
55634;DHT22;41504;53.162;6.788;2023-06-22T09:16:55;24.10;67.80
55634;DHT22;41504;53.162;6.788;2023-06-22T09:19:21;24.20;67.50
55634;DHT22;41504;53.162;6.788;2023-06-22T09:21:47;24.20;67.30
55634;DHT22;41504;53.162;6.788;2023-06-22T09:24:12;24.20;67.30
55634;DHT22;41504;53.162;6.788;2023-06-22T09:26:38;24.30;67.30
55634;DHT22;41504;53.162;6.788;2023-06-22T09:29:07;24.30;66.80
55634;DHT22;41504;53.162;6.788;2023-06-22T09:31:32;24.40;66.60
55634;DHT22;41504;53.162;6.788;2023-06-22T09:33:58;24.40;66.50
55634;DHT22;41504;53.162;6.788;2023-06-22T09:36:24;24.40;66.40
55634;DHT22;41504;53.162;6.788;2023-06-22T09:38:50;24.50;66.40
55634;DHT22;41504;53.162;6.788;2023-06-22T09:41:21;24.50;66.10
55634;DHT22;41504;53.162;6.788;2023-06-22T09:43:47;24.60;66.20
55634;DHT22;41504;53.162;6.788;2023-06-22T09:46:15;24.70;65.90
55634;DHT22;41504;53.162;6.788;2023-06-22T09:48:41;24.70;65.50
55634;DHT22;41504;53.162;6.788;2023-06-22T09:51:06;24.80;65.30
55634;DHT22;41504;53.162;6.788;2023-06-22T09:53:32;24.90;65.30
55634;DHT22;41504;53.162;6.788;2023-06-22T09:56:00;24.90;64.90
55634;DHT22;41504;53.162;6.788;2023-06-22T09:58:26;25.10;64.80
55634;DHT22;41504;53.162;6.788;2023-06-22T10:00:51;25.10;64.40
55634;DHT22;41504;53.162;6.788;2023-06-22T10:03:18;25.10;64.20
55634;DHT22;41504;53.162;6.788;2023-06-22T10:05:44;25.20;64.20
55634;DHT22;41504;53.162;6.788;2023-06-22T10:08:09;25.30;64.30
55634;DHT22;41504;53.162;6.788;2023-06-22T10:10:35;25.30;63.70
55634;DHT22;41504;53.162;6.788;2023-06-22T10:13:09;25.40;63.70
55634;DHT22;41504;53.162;6.788;2023-06-22T10:15:38;25.50;63.80
55634;DHT22;41504;53.162;6.788;2023-06-22T10:18:04;25.50;63.20
55634;DHT22;41504;53.162;6.788;2023-06-22T10:20:30;25.60;63.70
55634;DHT22;41504;53.162;6.788;2023-06-22T10:22:55;25.60;63.10
55634;DHT22;41504;53.162;6.788;2023-06-22T10:25:21;25.70;62.90
55634;DHT22;41504;53.162;6.788;2023-06-22T10:27:47;25.70;62.70
55634;DHT22;41504;53.162;6.788;2023-06-22T10:30:14;25.80;62.30
55634;DHT22;41504;53.162;6.788;2023-06-22T10:32:40;25.70;62.30
55634;DHT22;41504;53.162;6.788;2023-06-22T10:35:06;25.70;62.50
55634;DHT22;41504;53.162;6.788;2023-06-22T10:37:32;25.80;62.40
55634;DHT22;41504;53.162;6.788;2023-06-22T10:39:58;25.90;62.20
55634;DHT22;41504;53.162;6.788;2023-06-22T10:42:23;26.00;61.80
55634;DHT22;41504;53.162;6.788;2023-06-22T10:47:17;26.10;62.20
55634;DHT22;41504;53.162;6.788;2023-06-22T10:49:43;26.10;61.40
55634;DHT22;41504;53.162;6.788;2023-06-22T10:52:09;26.20;61.20
55634;DHT22;41504;53.162;6.788;2023-06-22T10:54:36;26.30;61.40
55634;DHT22;41504;53.162;6.788;2023-06-22T10:57:02;26.40;61.00
55634;DHT22;41504;53.162;6.788;2023-06-22T10:59:28;26.60;60.40
55634;DHT22;41504;53.162;6.788;2023-06-22T11:01:58;26.70;60.10
55634;DHT22;41504;53.162;6.788;2023-06-22T11:04:24;26.70;59.80
55634;DHT22;41504;53.162;6.788;2023-06-22T11:06:50;26.80;59.90
55634;DHT22;41504;53.162;6.788;2023-06-22T11:09:16;26.90;59.40
55634;DHT22;41504;53.162;6.788;2023-06-22T11:11:46;27.00;59.40
55634;DHT22;41504;53.162;6.788;2023-06-22T11:14:12;27.00;59.20
55634;DHT22;41504;53.162;6.788;2023-06-22T11:16:38;27.10;59.20
55634;DHT22;41504;53.162;6.788;2023-06-22T11:19:05;27.20;59.10
55634;DHT22;41504;53.162;6.788;2023-06-22T11:21:31;27.20;58.30
55634;DHT22;41504;53.162;6.788;2023-06-22T11:23:57;27.10;58.30
55634;DHT22;41504;53.162;6.788;2023-06-22T11:26:23;27.10;58.50
55634;DHT22;41504;53.162;6.788;2023-06-22T11:28:48;27.00;58.70
55634;DHT22;41504;53.162;6.788;2023-06-22T11:31:14;27.00;58.50
55634;DHT22;41504;53.162;6.788;2023-06-22T11:33:40;27.00;58.50
55634;DHT22;41504;53.162;6.788;2023-06-22T11:36:06;27.10;58.30
55634;DHT22;41504;53.162;6.788;2023-06-22T11:38:31;27.00;58.40
55634;DHT22;41504;53.162;6.788;2023-06-22T11:40:58;26.90;58.30
55634;DHT22;41504;53.162;6.788;2023-06-22T11:43:25;26.90;58.20
55634;DHT22;41504;53.162;6.788;2023-06-22T11:45:51;26.80;58.10
55634;DHT22;41504;53.162;6.788;2023-06-22T11:48:17;26.70;58.10
55634;DHT22;41504;53.162;6.788;2023-06-22T11:50:42;26.60;57.90
55634;DHT22;41504;53.162;6.788;2023-06-22T11:53:08;26.60;57.80
55634;DHT22;41504;53.162;6.788;2023-06-22T11:55:37;26.60;57.90
55634;DHT22;41504;53.162;6.788;2023-06-22T11:58:03;26.50;57.90
55634;DHT22;41504;53.162;6.788;2023-06-22T12:00:31;26.40;58.50
55634;DHT22;41504;53.162;6.788;2023-06-22T12:02:56;26.40;58.00
55634;DHT22;41504;53.162;6.788;2023-06-22T12:05:25;26.50;57.80
55634;DHT22;41504;53.162;6.788;2023-06-22T12:07:53;26.60;58.00
55634;DHT22;41504;53.162;6.788;2023-06-22T12:10:20;26.70;57.70
55634;DHT22;41504;53.162;6.788;2023-06-22T12:12:45;26.70;57.70
55634;DHT22;41504;53.162;6.788;2023-06-22T12:15:11;26.70;57.80
55634;DHT22;41504;53.162;6.788;2023-06-22T12:17:37;26.80;58.10
55634;DHT22;41504;53.162;6.788;2023-06-22T12:20:06;26.90;58.10
55634;DHT22;41504;53.162;6.788;2023-06-22T12:22:34;26.90;57.50
55634;DHT22;41504;53.162;6.788;2023-06-22T12:25:07;26.90;57.40
55634;DHT22;41504;53.162;6.788;2023-06-22T12:27:33;26.90;57.20
55634;DHT22;41504;53.162;6.788;2023-06-22T12:29:59;26.80;57.50
55634;DHT22;41504;53.162;6.788;2023-06-22T12:32:25;26.70;58.40
55634;DHT22;41504;53.162;6.788;2023-06-22T12:34:51;26.60;59.00
55634;DHT22;41504;53.162;6.788;2023-06-22T12:37:17;26.50;58.90
55634;DHT22;41504;53.162;6.788;2023-06-22T12:39:43;26.30;59.50
55634;DHT22;41504;53.162;6.788;2023-06-22T12:42:09;26.30;59.70
55634;DHT22;41504;53.162;6.788;2023-06-22T12:44:38;26.30;59.30
55634;DHT22;41504;53.162;6.788;2023-06-22T12:47:06;26.20;59.40
55634;DHT22;41504;53.162;6.788;2023-06-22T12:49:35;26.20;60.30
55634;DHT22;41504;53.162;6.788;2023-06-22T12:52:01;26.20;60.00
55634;DHT22;41504;53.162;6.788;2023-06-22T12:54:27;26.20;60.00
55634;DHT22;41504;53.162;6.788;2023-06-22T12:56:53;26.10;59.80
55634;DHT22;41504;53.162;6.788;2023-06-22T12:59:19;26.00;60.10
55634;DHT22;41504;53.162;6.788;2023-06-22T13:01:45;25.90;60.30
55634;DHT22;41504;53.162;6.788;2023-06-22T13:04:14;25.70;60.60
55634;DHT22;41504;53.162;6.788;2023-06-22T13:06:43;25.80;61.20
55634;DHT22;41504;53.162;6.788;2023-06-22T13:09:10;25.90;60.70
55634;DHT22;41504;53.162;6.788;2023-06-22T13:11:36;25.90;60.80
55634;DHT22;41504;53.162;6.788;2023-06-22T13:14:01;25.80;60.90
55634;DHT22;41504;53.162;6.788;2023-06-22T13:16:27;25.70;61.30
55634;DHT22;41504;53.162;6.788;2023-06-22T13:18:53;25.70;61.00
55634;DHT22;41504;53.162;6.788;2023-06-22T13:21:18;25.70;61.10
55634;DHT22;41504;53.162;6.788;2023-06-22T13:23:44;25.70;61.30
55634;DHT22;41504;53.162;6.788;2023-06-22T13:26:10;25.60;61.00
55634;DHT22;41504;53.162;6.788;2023-06-22T13:28:36;25.60;61.50
55634;DHT22;41504;53.162;6.788;2023-06-22T13:31:01;25.60;61.50
55634;DHT22;41504;53.162;6.788;2023-06-22T13:33:27;25.50;61.80
55634;DHT22;41504;53.162;6.788;2023-06-22T13:35:53;25.50;62.60
55634;DHT22;41504;53.162;6.788;2023-06-22T13:38:19;25.60;61.80
55634;DHT22;41504;53.162;6.788;2023-06-22T13:40:44;25.50;61.80
55634;DHT22;41504;53.162;6.788;2023-06-22T13:43:10;25.30;62.00
55634;DHT22;41504;53.162;6.788;2023-06-22T13:45:36;25.30;62.60
55634;DHT22;41504;53.162;6.788;2023-06-22T13:48:02;25.20;62.30
55634;DHT22;41504;53.162;6.788;2023-06-22T13:50:27;25.10;62.40
55634;DHT22;41504;53.162;6.788;2023-06-22T13:52:54;25.00;62.40
55634;DHT22;41504;53.162;6.788;2023-06-22T13:55:20;24.90;62.80
55634;DHT22;41504;53.162;6.788;2023-06-22T13:57:46;24.90;62.80
55634;DHT22;41504;53.162;6.788;2023-06-22T14:00:12;24.90;62.80
55634;DHT22;41504;53.162;6.788;2023-06-22T14:02:38;24.80;63.00
55634;DHT22;41504;53.162;6.788;2023-06-22T14:05:09;24.80;63.00
55634;DHT22;41504;53.162;6.788;2023-06-22T14:07:36;24.70;63.10
55634;DHT22;41504;53.162;6.788;2023-06-22T14:10:03;24.70;63.10
55634;DHT22;41504;53.162;6.788;2023-06-22T14:12:29;24.60;63.30
55634;DHT22;41504;53.162;6.788;2023-06-22T14:14:55;24.50;63.30
55634;DHT22;41504;53.162;6.788;2023-06-22T14:17:21;24.50;63.70
55634;DHT22;41504;53.162;6.788;2023-06-22T14:19:51;24.50;63.70
55634;DHT22;41504;53.162;6.788;2023-06-22T14:22:20;24.50;64.00
55634;DHT22;41504;53.162;6.788;2023-06-22T14:24:47;24.50;63.80
55634;DHT22;41504;53.162;6.788;2023-06-22T14:27:12;24.60;63.50
55634;DHT22;41504;53.162;6.788;2023-06-22T14:29:38;24.50;63.20
55634;DHT22;41504;53.162;6.788;2023-06-22T14:32:04;24.40;63.50
55634;DHT22;41504;53.162;6.788;2023-06-22T14:34:32;24.30;63.50
55634;DHT22;41504;53.162;6.788;2023-06-22T14:36:58;24.30;63.50
55634;DHT22;41504;53.162;6.788;2023-06-22T14:39:24;24.20;63.70
55634;DHT22;41504;53.162;6.788;2023-06-22T14:41:50;24.20;63.80
55634;DHT22;41504;53.162;6.788;2023-06-22T14:44:15;24.20;63.70
55634;DHT22;41504;53.162;6.788;2023-06-22T14:46:41;24.20;63.60
55634;DHT22;41504;53.162;6.788;2023-06-22T14:49:08;24.20;63.70
55634;DHT22;41504;53.162;6.788;2023-06-22T14:51:39;24.30;63.30
55634;DHT22;41504;53.162;6.788;2023-06-22T14:54:05;24.20;63.40
55634;DHT22;41504;53.162;6.788;2023-06-22T14:56:31;24.20;63.50
55634;DHT22;41504;53.162;6.788;2023-06-22T14:58:56;24.20;63.20
55634;DHT22;41504;53.162;6.788;2023-06-22T15:01:22;24.20;63.00
55634;DHT22;41504;53.162;6.788;2023-06-22T15:03:48;24.20;63.30
55634;DHT22;41504;53.162;6.788;2023-06-22T15:06:14;24.20;62.90
55634;DHT22;41504;53.162;6.788;2023-06-22T15:08:40;24.20;63.10
55634;DHT22;41504;53.162;6.788;2023-06-22T15:11:06;24.10;62.60
55634;DHT22;41504;53.162;6.788;2023-06-22T15:13:33;24.00;62.00
55634;DHT22;41504;53.162;6.788;2023-06-22T15:16:00;24.00;61.10
55634;DHT22;41504;53.162;6.788;2023-06-22T15:18:25;23.90;61.10
55634;DHT22;41504;53.162;6.788;2023-06-22T15:20:52;23.90;61.10
55634;DHT22;41504;53.162;6.788;2023-06-22T15:23:18;23.80;61.20
55634;DHT22;41504;53.162;6.788;2023-06-22T15:25:44;23.70;61.10
55634;DHT22;41504;53.162;6.788;2023-06-22T15:28:11;23.60;61.90
55634;DHT22;41504;53.162;6.788;2023-06-22T15:30:37;23.60;61.40
55634;DHT22;41504;53.162;6.788;2023-06-22T15:33:03;23.60;61.30
55634;DHT22;41504;53.162;6.788;2023-06-22T15:35:29;23.70;61.00